sensor_id;sensor_type;location;lat;lon;timestamp;P1;P2;P0
35654;PMS1003;21773;50.010;19.972;2023-04-28T00:00:39;23.20;21.80;18.80
35654;PMS1003;21773;50.010;19.972;2023-04-28T00:03:42;21.20;19.60;17.20
35654;PMS1003;21773;50.010;19.972;2023-04-28T00:06:46;21.00;20.25;18.75
35654;PMS1003;21773;50.010;19.972;2023-04-28T00:09:50;21.00;20.00;18.00
35654;PMS1003;21773;50.010;19.972;2023-04-28T00:12:54;23.40;22.00;19.60
35654;PMS1003;21773;50.010;19.972;2023-04-28T00:15:58;33.50;31.00;24.75
35654;PMS1003;21773;50.010;19.972;2023-04-28T00:19:02;40.40;34.60;27.00
35654;PMS1003;21773;50.010;19.972;2023-04-28T00:22:05;38.40;32.00;25.00
35654;PMS1003;21773;50.010;19.972;2023-04-28T00:25:09;38.80;34.00;26.80
35654;PMS1003;21773;50.010;19.972;2023-04-28T00:28:14;40.40;33.40;26.20
35654;PMS1003;21773;50.010;19.972;2023-04-28T00:31:34;28.00;28.00;23.00
35654;PMS1003;21773;50.010;19.972;2023-04-28T00:34:38;29.40;28.00;22.40
35654;PMS1003;21773;50.010;19.972;2023-04-28T00:37:41;29.20;29.00;23.00
35654;PMS1003;21773;50.010;19.972;2023-04-28T00:40:44;31.20;29.20;23.00
35654;PMS1003;21773;50.010;19.972;2023-04-28T00:43:49;36.20;32.00;24.00
35654;PMS1003;21773;50.010;19.972;2023-04-28T00:46:52;34.00;29.60;23.00
35654;PMS1003;21773;50.010;19.972;2023-04-28T00:49:56;32.75;31.00;25.00
35654;PMS1003;21773;50.010;19.972;2023-04-28T00:53:00;35.40;32.00;26.00
35654;PMS1003;21773;50.010;19.972;2023-04-28T00:56:05;34.60;31.60;24.60
35654;PMS1003;21773;50.010;19.972;2023-04-28T00:59:10;35.50;32.00;26.00
35654;PMS1003;21773;50.010;19.972;2023-04-28T01:02:14;35.25;32.00;24.50
35654;PMS1003;21773;50.010;19.972;2023-04-28T01:05:19;33.80;30.40;24.40
35654;PMS1003;21773;50.010;19.972;2023-04-28T01:08:23;30.60;29.60;23.00
35654;PMS1003;21773;50.010;19.972;2023-04-28T01:11:30;32.80;30.80;24.60
35654;PMS1003;21773;50.010;19.972;2023-04-28T01:14:41;36.60;32.00;26.00
35654;PMS1003;21773;50.010;19.972;2023-04-28T01:17:45;33.40;29.60;23.60
35654;PMS1003;21773;50.010;19.972;2023-04-28T01:20:49;33.25;30.00;23.25
35654;PMS1003;21773;50.010;19.972;2023-04-28T01:23:53;33.50;30.50;23.75
35654;PMS1003;21773;50.010;19.972;2023-04-28T01:26:57;34.00;30.00;24.00
35654;PMS1003;21773;50.010;19.972;2023-04-28T01:30:01;33.25;30.25;23.25
35654;PMS1003;21773;50.010;19.972;2023-04-28T01:33:05;34.75;31.50;24.75
35654;PMS1003;21773;50.010;19.972;2023-04-28T01:36:09;34.25;30.50;24.00
35654;PMS1003;21773;50.010;19.972;2023-04-28T01:39:13;31.40;30.00;24.00
35654;PMS1003;21773;50.010;19.972;2023-04-28T01:42:17;34.00;31.00;24.00
35654;PMS1003;21773;50.010;19.972;2023-04-28T01:45:20;34.80;31.00;24.00
35654;PMS1003;21773;50.010;19.972;2023-04-28T01:48:24;35.00;30.60;24.40
35654;PMS1003;21773;50.010;19.972;2023-04-28T01:51:27;35.00;32.00;25.60
35654;PMS1003;21773;50.010;19.972;2023-04-28T01:54:32;34.80;30.00;24.00
35654;PMS1003;21773;50.010;19.972;2023-04-28T01:57:36;35.40;32.00;25.00
35654;PMS1003;21773;50.010;19.972;2023-04-28T02:00:39;28.20;27.20;22.20
35654;PMS1003;21773;50.010;19.972;2023-04-28T02:03:42;33.20;30.20;24.00
35654;PMS1003;21773;50.010;19.972;2023-04-28T02:06:46;33.40;30.00;23.40
35654;PMS1003;21773;50.010;19.972;2023-04-28T02:09:51;36.00;32.00;25.00
35654;PMS1003;21773;50.010;19.972;2023-04-28T02:12:55;32.75;30.75;24.00
35654;PMS1003;21773;50.010;19.972;2023-04-28T02:15:59;32.00;30.00;24.00
35654;PMS1003;21773;50.010;19.972;2023-04-28T02:19:03;31.20;28.20;22.80
35654;PMS1003;21773;50.010;19.972;2023-04-28T02:22:06;31.40;29.60;24.00
35654;PMS1003;21773;50.010;19.972;2023-04-28T02:25:11;32.60;30.00;23.00
35654;PMS1003;21773;50.010;19.972;2023-04-28T02:28:14;26.80;26.00;21.80
35654;PMS1003;21773;50.010;19.972;2023-04-28T02:31:18;35.00;30.00;25.25
35654;PMS1003;21773;50.010;19.972;2023-04-28T02:34:21;33.00;30.40;23.00
35654;PMS1003;21773;50.010;19.972;2023-04-28T02:37:25;35.00;31.67;24.33
35654;PMS1003;21773;50.010;19.972;2023-04-28T02:40:29;28.75;28.00;22.25
35654;PMS1003;21773;50.010;19.972;2023-04-28T02:43:33;30.00;27.40;22.00
35654;PMS1003;21773;50.010;19.972;2023-04-28T02:46:37;28.00;26.20;21.20
35654;PMS1003;21773;50.010;19.972;2023-04-28T02:49:40;32.00;30.00;24.00
35654;PMS1003;21773;50.010;19.972;2023-04-28T02:52:44;36.00;31.20;25.20
35654;PMS1003;21773;50.010;19.972;2023-04-28T02:55:51;38.40;32.40;26.00
35654;PMS1003;21773;50.010;19.972;2023-04-28T02:58:54;37.00;33.00;26.00
35654;PMS1003;21773;50.010;19.972;2023-04-28T03:01:58;38.00;33.80;27.00
35654;PMS1003;21773;50.010;19.972;2023-04-28T03:05:01;36.00;32.00;26.00
35654;PMS1003;21773;50.010;19.972;2023-04-28T03:08:05;39.60;33.00;26.60
35654;PMS1003;21773;50.010;19.972;2023-04-28T03:11:10;39.00;32.00;25.00
35654;PMS1003;21773;50.010;19.972;2023-04-28T03:14:13;37.40;32.00;24.80
35654;PMS1003;21773;50.010;19.972;2023-04-28T03:17:17;35.80;31.40;24.00
35654;PMS1003;21773;50.010;19.972;2023-04-28T03:20:21;34.40;30.40;24.40
35654;PMS1003;21773;50.010;19.972;2023-04-28T03:23:25;36.60;32.60;24.60
35654;PMS1003;21773;50.010;19.972;2023-04-28T03:26:31;34.40;32.00;25.00
35654;PMS1003;21773;50.010;19.972;2023-04-28T03:29:34;35.00;32.00;25.20
35654;PMS1003;21773;50.010;19.972;2023-04-28T03:32:38;40.20;33.40;27.00
35654;PMS1003;21773;50.010;19.972;2023-04-28T03:35:42;36.25;32.00;25.75
35654;PMS1003;21773;50.010;19.972;2023-04-28T03:38:45;38.40;33.00;25.40
35654;PMS1003;21773;50.010;19.972;2023-04-28T03:41:50;42.80;34.80;26.80
35654;PMS1003;21773;50.010;19.972;2023-04-28T03:45:25;36.50;33.00;26.00
35654;PMS1003;21773;50.010;19.972;2023-04-28T03:48:29;34.00;31.00;24.00
35654;PMS1003;21773;50.010;19.972;2023-04-28T03:51:32;42.40;34.60;26.00
35654;PMS1003;21773;50.010;19.972;2023-04-28T03:54:36;36.60;32.00;26.00
35654;PMS1003;21773;50.010;19.972;2023-04-28T03:57:40;31.00;29.75;23.75
35654;PMS1003;21773;50.010;19.972;2023-04-28T04:00:44;34.00;31.00;25.00
35654;PMS1003;21773;50.010;19.972;2023-04-28T04:03:48;35.40;30.20;24.00
35654;PMS1003;21773;50.010;19.972;2023-04-28T04:06:52;35.40;32.00;26.00
35654;PMS1003;21773;50.010;19.972;2023-04-28T04:09:55;35.00;30.60;24.00
35654;PMS1003;21773;50.010;19.972;2023-04-28T04:13:00;35.75;31.75;24.75
35654;PMS1003;21773;50.010;19.972;2023-04-28T04:16:04;35.00;32.00;26.00
35654;PMS1003;21773;50.010;19.972;2023-04-28T04:19:09;42.50;33.00;26.50
35654;PMS1003;21773;50.010;19.972;2023-04-28T04:22:17;31.00;30.00;23.00
35654;PMS1003;21773;50.010;19.972;2023-04-28T04:25:21;39.00;33.80;26.20
35654;PMS1003;21773;50.010;19.972;2023-04-28T04:28:27;39.40;32.00;26.00
35654;PMS1003;21773;50.010;19.972;2023-04-28T04:31:30;36.00;31.80;25.60
35654;PMS1003;21773;50.010;19.972;2023-04-28T04:34:33;36.00;33.00;25.80
35654;PMS1003;21773;50.010;19.972;2023-04-28T04:37:37;36.50;33.00;26.00
35654;PMS1003;21773;50.010;19.972;2023-04-28T04:40:41;34.00;31.50;24.00
35654;PMS1003;21773;50.010;19.972;2023-04-28T04:43:46;37.00;32.00;25.80
35654;PMS1003;21773;50.010;19.972;2023-04-28T04:46:50;35.80;30.40;24.00
35654;PMS1003;21773;50.010;19.972;2023-04-28T04:49:54;35.00;31.00;24.00
35654;PMS1003;21773;50.010;19.972;2023-04-28T04:52:58;30.75;29.75;23.00
35654;PMS1003;21773;50.010;19.972;2023-04-28T04:56:01;35.00;31.00;24.20
35654;PMS1003;21773;50.010;19.972;2023-04-28T04:59:08;29.75;28.00;23.00
35654;PMS1003;21773;50.010;19.972;2023-04-28T05:02:31;28.60;27.00;22.00
35654;PMS1003;21773;50.010;19.972;2023-04-28T05:05:36;25.40;23.40;20.00
35654;PMS1003;21773;50.010;19.972;2023-04-28T05:08:52;25.40;24.00;20.00
35654;PMS1003;21773;50.010;19.972;2023-04-28T05:11:57;27.60;26.00;22.00
35654;PMS1003;21773;50.010;19.972;2023-04-28T05:15:02;23.00;22.00;19.00
35654;PMS1003;21773;50.010;19.972;2023-04-28T05:18:06;26.20;25.80;22.00
35654;PMS1003;21773;50.010;19.972;2023-04-28T05:21:12;23.75;21.00;19.00
35654;PMS1003;21773;50.010;19.972;2023-04-28T05:24:15;24.40;23.60;20.00
35654;PMS1003;21773;50.010;19.972;2023-04-28T05:27:19;23.25;23.25;20.00
35654;PMS1003;21773;50.010;19.972;2023-04-28T05:30:24;23.60;21.00;19.00
35654;PMS1003;21773;50.010;19.972;2023-04-28T05:33:27;20.00;19.80;17.60
35654;PMS1003;21773;50.010;19.972;2023-04-28T05:36:31;22.00;20.00;17.00
35654;PMS1003;21773;50.010;19.972;2023-04-28T05:39:35;21.00;19.00;17.00
35654;PMS1003;21773;50.010;19.972;2023-04-28T05:42:39;21.33;19.33;18.00
35654;PMS1003;21773;50.010;19.972;2023-04-28T05:45:44;19.60;19.00;17.00
35654;PMS1003;21773;50.010;19.972;2023-04-28T05:48:48;22.40;22.00;19.40
35654;PMS1003;21773;50.010;19.972;2023-04-28T05:51:51;19.00;17.60;16.60
35654;PMS1003;21773;50.010;19.972;2023-04-28T05:54:55;16.00;16.00;15.00
35654;PMS1003;21773;50.010;19.972;2023-04-28T05:57:58;18.20;17.20;15.20
35654;PMS1003;21773;50.010;19.972;2023-04-28T06:01:03;18.00;16.00;15.00
35654;PMS1003;21773;50.010;19.972;2023-04-28T06:04:06;17.80;15.80;14.80
35654;PMS1003;21773;50.010;19.972;2023-04-28T06:07:10;18.80;18.40;17.40
35654;PMS1003;21773;50.010;19.972;2023-04-28T06:10:14;13.00;13.00;12.00
35654;PMS1003;21773;50.010;19.972;2023-04-28T06:13:17;14.60;13.60;12.60
35654;PMS1003;21773;50.010;19.972;2023-04-28T06:16:22;16.25;15.25;13.25
35654;PMS1003;21773;50.010;19.972;2023-04-28T06:19:25;16.00;13.60;13.00
35654;PMS1003;21773;50.010;19.972;2023-04-28T06:22:29;18.20;16.00;14.60
35654;PMS1003;21773;50.010;19.972;2023-04-28T06:25:32;15.60;14.60;13.40
35654;PMS1003;21773;50.010;19.972;2023-04-28T06:28:36;17.00;16.00;14.00
35654;PMS1003;21773;50.010;19.972;2023-04-28T06:31:42;17.00;17.00;15.40
35654;PMS1003;21773;50.010;19.972;2023-04-28T06:34:47;17.00;15.00;12.00
35654;PMS1003;21773;50.010;19.972;2023-04-28T06:37:50;16.40;14.40;12.60
35654;PMS1003;21773;50.010;19.972;2023-04-28T06:40:54;13.00;11.25;10.00
35654;PMS1003;21773;50.010;19.972;2023-04-28T06:43:57;15.00;14.00;13.00
35654;PMS1003;21773;50.010;19.972;2023-04-28T06:47:05;12.60;11.00;10.00
35654;PMS1003;21773;50.010;19.972;2023-04-28T06:50:10;12.40;11.00;10.00
35654;PMS1003;21773;50.010;19.972;2023-04-28T06:53:14;14.00;13.00;12.00
35654;PMS1003;21773;50.010;19.972;2023-04-28T06:56:17;13.40;13.40;13.00
35654;PMS1003;21773;50.010;19.972;2023-04-28T06:59:21;12.75;12.75;11.00
35654;PMS1003;21773;50.010;19.972;2023-04-28T07:02:26;13.00;12.80;11.80
35654;PMS1003;21773;50.010;19.972;2023-04-28T07:05:30;10.00;10.00;9.00
35654;PMS1003;21773;50.010;19.972;2023-04-28T07:08:35;11.00;10.50;10.00
35654;PMS1003;21773;50.010;19.972;2023-04-28T07:11:38;11.20;10.20;9.20
35654;PMS1003;21773;50.010;19.972;2023-04-28T07:14:42;13.80;12.00;10.80
35654;PMS1003;21773;50.010;19.972;2023-04-28T07:17:47;14.00;12.00;9.60
35654;PMS1003;21773;50.010;19.972;2023-04-28T07:20:50;12.00;11.80;10.00
35654;PMS1003;21773;50.010;19.972;2023-04-28T07:23:53;11.50;11.00;11.00
35654;PMS1003;21773;50.010;19.972;2023-04-28T07:26:57;9.00;9.00;9.00
35654;PMS1003;21773;50.010;19.972;2023-04-28T07:30:02;7.00;7.00;6.00
35654;PMS1003;21773;50.010;19.972;2023-04-28T07:33:27;10.00;10.00;9.40
35654;PMS1003;21773;50.010;19.972;2023-04-28T07:36:30;9.00;9.00;8.00
35654;PMS1003;21773;50.010;19.972;2023-04-28T07:39:33;6.00;6.00;5.00
35654;PMS1003;21773;50.010;19.972;2023-04-28T07:42:37;9.00;8.67;8.00
35654;PMS1003;21773;50.010;19.972;2023-04-28T07:45:40;7.00;6.80;6.80
35654;PMS1003;21773;50.010;19.972;2023-04-28T07:48:48;7.40;6.40;6.40
35654;PMS1003;21773;50.010;19.972;2023-04-28T07:51:51;8.40;8.40;8.00
35654;PMS1003;21773;50.010;19.972;2023-04-28T07:54:56;9.00;9.00;8.00
35654;PMS1003;21773;50.010;19.972;2023-04-28T07:58:00;11.00;10.60;10.00
35654;PMS1003;21773;50.010;19.972;2023-04-28T08:01:03;12.00;11.00;11.00
35654;PMS1003;21773;50.010;19.972;2023-04-28T08:04:08;9.60;8.00;7.60
35654;PMS1003;21773;50.010;19.972;2023-04-28T08:07:12;10.00;10.00;9.00
35654;PMS1003;21773;50.010;19.972;2023-04-28T08:10:16;6.25;6.25;6.00
35654;PMS1003;21773;50.010;19.972;2023-04-28T08:13:19;11.00;10.00;9.40
35654;PMS1003;21773;50.010;19.972;2023-04-28T08:16:23;13.00;12.60;12.00
35654;PMS1003;21773;50.010;19.972;2023-04-28T08:19:27;10.40;10.00;10.00
35654;PMS1003;21773;50.010;19.972;2023-04-28T08:22:31;10.60;10.60;10.00
35654;PMS1003;21773;50.010;19.972;2023-04-28T08:25:34;10.00;10.00;9.75
35654;PMS1003;21773;50.010;19.972;2023-04-28T08:28:37;8.00;8.00;7.00
35654;PMS1003;21773;50.010;19.972;2023-04-28T08:31:41;7.00;7.00;6.00
35654;PMS1003;21773;50.010;19.972;2023-04-28T08:34:46;9.00;7.00;6.40
35654;PMS1003;21773;50.010;19.972;2023-04-28T08:37:50;7.00;7.00;6.00
35654;PMS1003;21773;50.010;19.972;2023-04-28T08:40:54;5.33;5.33;5.00
35654;PMS1003;21773;50.010;19.972;2023-04-28T08:43:57;9.20;8.20;7.20
35654;PMS1003;21773;50.010;19.972;2023-04-28T08:47:00;8.00;7.00;6.00
35654;PMS1003;21773;50.010;19.972;2023-04-28T08:50:08;11.00;10.50;10.00
35654;PMS1003;21773;50.010;19.972;2023-04-28T08:53:13;9.00;8.00;7.75
35654;PMS1003;21773;50.010;19.972;2023-04-28T08:56:19;8.00;8.00;7.00
35654;PMS1003;21773;50.010;19.972;2023-04-28T08:59:26;9.00;7.00;7.00
35654;PMS1003;21773;50.010;19.972;2023-04-28T09:02:30;9.00;8.00;8.00
35654;PMS1003;21773;50.010;19.972;2023-04-28T09:05:35;9.00;9.00;8.00
35654;PMS1003;21773;50.010;19.972;2023-04-28T09:08:38;12.00;11.00;10.00
35654;PMS1003;21773;50.010;19.972;2023-04-28T09:11:49;9.00;9.00;8.00
35654;PMS1003;21773;50.010;19.972;2023-04-28T09:14:56;9.50;9.00;9.00
35654;PMS1003;21773;50.010;19.972;2023-04-28T09:18:00;9.00;9.00;8.00
35654;PMS1003;21773;50.010;19.972;2023-04-28T09:21:06;9.40;9.40;8.40
35654;PMS1003;21773;50.010;19.972;2023-04-28T09:24:10;8.40;8.00;7.00
35654;PMS1003;21773;50.010;19.972;2023-04-28T09:27:27;8.00;7.80;6.80
35654;PMS1003;21773;50.010;19.972;2023-04-28T09:30:37;10.00;9.00;8.00
35654;PMS1003;21773;50.010;19.972;2023-04-28T09:33:48;9.40;9.00;8.00
35654;PMS1003;21773;50.010;19.972;2023-04-28T09:37:00;8.80;8.00;7.80
35654;PMS1003;21773;50.010;19.972;2023-04-28T09:40:17;7.00;7.00;6.00
35654;PMS1003;21773;50.010;19.972;2023-04-28T09:43:28;7.00;7.00;7.00
35654;PMS1003;21773;50.010;19.972;2023-04-28T09:46:33;11.00;9.40;8.00
35654;PMS1003;21773;50.010;19.972;2023-04-28T09:49:40;10.00;9.00;8.00
35654;PMS1003;21773;50.010;19.972;2023-04-28T09:52:57;8.60;8.40;7.60
35654;PMS1003;21773;50.010;19.972;2023-04-28T09:56:01;8.00;8.00;7.00
35654;PMS1003;21773;50.010;19.972;2023-04-28T09:59:07;11.00;9.00;9.00
35654;PMS1003;21773;50.010;19.972;2023-04-28T10:02:10;11.00;10.00;9.00
35654;PMS1003;21773;50.010;19.972;2023-04-28T10:05:35;8.20;7.60;7.00
35654;PMS1003;21773;50.010;19.972;2023-04-28T10:08:42;9.50;9.50;8.50
35654;PMS1003;21773;50.010;19.972;2023-04-28T10:11:48;9.60;9.40;8.40
35654;PMS1003;21773;50.010;19.972;2023-04-28T10:14:52;9.00;8.25;8.00
35654;PMS1003;21773;50.010;19.972;2023-04-28T10:17:55;9.20;8.80;7.20
35654;PMS1003;21773;50.010;19.972;2023-04-28T10:21:00;9.00;9.00;8.00
35654;PMS1003;21773;50.010;19.972;2023-04-28T10:24:12;9.00;8.00;7.00
35654;PMS1003;21773;50.010;19.972;2023-04-28T10:27:20;11.40;10.60;10.00
35654;PMS1003;21773;50.010;19.972;2023-04-28T10:30:29;10.20;10.00;9.00
35654;PMS1003;21773;50.010;19.972;2023-04-28T10:33:32;10.80;10.00;9.20
35654;PMS1003;21773;50.010;19.972;2023-04-28T10:36:48;10.00;10.00;9.00
35654;PMS1003;21773;50.010;19.972;2023-04-28T10:43:35;9.40;9.00;8.40
35654;PMS1003;21773;50.010;19.972;2023-04-28T10:50:06;9.00;9.00;8.50
35654;PMS1003;21773;50.010;19.972;2023-04-28T10:53:10;11.25;10.00;9.00
35654;PMS1003;21773;50.010;19.972;2023-04-28T10:56:15;8.00;6.60;6.00
35654;PMS1003;21773;50.010;19.972;2023-04-28T10:59:26;9.00;8.00;7.00
35654;PMS1003;21773;50.010;19.972;2023-04-28T11:02:39;8.00;8.00;7.20
35654;PMS1003;21773;50.010;19.972;2023-04-28T11:16:34;9.00;8.80;8.00
35654;PMS1003;21773;50.010;19.972;2023-04-28T11:19:51;9.00;9.00;7.50
35654;PMS1003;21773;50.010;19.972;2023-04-28T11:22:58;8.20;8.00;7.00
35654;PMS1003;21773;50.010;19.972;2023-04-28T11:26:01;9.60;9.00;8.00
35654;PMS1003;21773;50.010;19.972;2023-04-28T11:29:07;11.33;10.00;9.00
35654;PMS1003;21773;50.010;19.972;2023-04-28T11:32:10;8.00;8.00;7.00
35654;PMS1003;21773;50.010;19.972;2023-04-28T11:35:14;8.80;8.00;7.00
35654;PMS1003;21773;50.010;19.972;2023-04-28T11:38:17;8.40;7.60;7.00
35654;PMS1003;21773;50.010;19.972;2023-04-28T11:41:20;7.40;7.40;6.40
35654;PMS1003;21773;50.010;19.972;2023-04-28T11:44:26;6.00;6.00;5.25
35654;PMS1003;21773;50.010;19.972;2023-04-28T11:47:32;8.25;6.00;5.50
35654;PMS1003;21773;50.010;19.972;2023-04-28T11:50:36;6.60;6.20;6.00
35654;PMS1003;21773;50.010;19.972;2023-04-28T11:53:40;8.00;7.00;6.00
35654;PMS1003;21773;50.010;19.972;2023-04-28T11:56:44;10.00;9.00;8.40
35654;PMS1003;21773;50.010;19.972;2023-04-28T11:59:49;8.00;8.00;7.00
35654;PMS1003;21773;50.010;19.972;2023-04-28T12:02:52;12.00;10.40;10.00
35654;PMS1003;21773;50.010;19.972;2023-04-28T12:05:56;8.00;7.00;6.00
35654;PMS1003;21773;50.010;19.972;2023-04-28T12:08:59;6.75;6.25;6.00
35654;PMS1003;21773;50.010;19.972;2023-04-28T12:12:06;8.00;8.00;7.00
35654;PMS1003;21773;50.010;19.972;2023-04-28T12:15:12;8.00;8.00;7.00
35654;PMS1003;21773;50.010;19.972;2023-04-28T12:18:17;9.00;8.00;7.00
35654;PMS1003;21773;50.010;19.972;2023-04-28T12:21:20;6.00;6.00;6.00
35654;PMS1003;21773;50.010;19.972;2023-04-28T12:24:23;7.80;7.80;7.20
35654;PMS1003;21773;50.010;19.972;2023-04-28T12:27:27;8.00;7.40;7.00
35654;PMS1003;21773;50.010;19.972;2023-04-28T12:30:34;9.00;9.00;8.60
35654;PMS1003;21773;50.010;19.972;2023-04-28T12:33:39;7.00;6.40;6.00
35654;PMS1003;21773;50.010;19.972;2023-04-28T12:36:42;7.00;6.20;5.20
35654;PMS1003;21773;50.010;19.972;2023-04-28T12:39:48;8.20;7.20;7.00
35654;PMS1003;21773;50.010;19.972;2023-04-28T12:42:52;10.60;10.60;9.60
35654;PMS1003;21773;50.010;19.972;2023-04-28T12:45:56;10.00;8.33;8.00
35654;PMS1003;21773;50.010;19.972;2023-04-28T12:49:01;6.50;6.50;6.00
35654;PMS1003;21773;50.010;19.972;2023-04-28T12:52:04;8.00;8.00;7.00
35654;PMS1003;21773;50.010;19.972;2023-04-28T12:55:08;11.40;10.60;9.40
35654;PMS1003;21773;50.010;19.972;2023-04-28T12:58:12;10.00;10.00;10.00
35654;PMS1003;21773;50.010;19.972;2023-04-28T13:01:17;12.00;10.80;10.00
35654;PMS1003;21773;50.010;19.972;2023-04-28T13:04:20;11.00;11.00;9.40
35654;PMS1003;21773;50.010;19.972;2023-04-28T13:07:24;10.40;9.40;8.00
35654;PMS1003;21773;50.010;19.972;2023-04-28T13:10:27;13.00;12.00;11.00
35654;PMS1003;21773;50.010;19.972;2023-04-28T13:13:30;10.00;10.00;9.00
35654;PMS1003;21773;50.010;19.972;2023-04-28T13:16:35;9.00;8.60;7.00
35654;PMS1003;21773;50.010;19.972;2023-04-28T13:19:38;13.75;12.00;11.00
35654;PMS1003;21773;50.010;19.972;2023-04-28T13:22:42;9.00;8.00;7.00
35654;PMS1003;21773;50.010;19.972;2023-04-28T13:25:46;8.00;7.00;7.00
35654;PMS1003;21773;50.010;19.972;2023-04-28T13:28:49;6.60;6.20;6.00
35654;PMS1003;21773;50.010;19.972;2023-04-28T13:31:55;7.00;7.00;7.00
35654;PMS1003;21773;50.010;19.972;2023-04-28T13:34:58;8.40;8.00;7.40
35654;PMS1003;21773;50.010;19.972;2023-04-28T13:38:01;10.67;9.00;8.00
35654;PMS1003;21773;50.010;19.972;2023-04-28T13:41:05;9.00;9.00;8.00
35654;PMS1003;21773;50.010;19.972;2023-04-28T13:44:09;8.00;8.00;7.00
35654;PMS1003;21773;50.010;19.972;2023-04-28T13:47:13;7.40;6.40;5.60
35654;PMS1003;21773;50.010;19.972;2023-04-28T13:50:17;8.00;8.00;7.00
35654;PMS1003;21773;50.010;19.972;2023-04-28T13:53:20;9.60;9.00;7.00
35654;PMS1003;21773;50.010;19.972;2023-04-28T13:56:24;10.00;9.00;8.00
35654;PMS1003;21773;50.010;19.972;2023-04-28T13:59:27;9.00;8.00;8.00
35654;PMS1003;21773;50.010;19.972;2023-04-28T14:02:32;8.00;8.00;7.80
35654;PMS1003;21773;50.010;19.972;2023-04-28T14:05:36;8.25;8.00;7.00
35654;PMS1003;21773;50.010;19.972;2023-04-28T14:08:50;10.00;10.00;9.40
35654;PMS1003;21773;50.010;19.972;2023-04-28T14:11:53;8.00;7.00;6.40
35654;PMS1003;21773;50.010;19.972;2023-04-28T14:14:57;10.80;8.20;8.20
35654;PMS1003;21773;50.010;19.972;2023-04-28T14:18:01;9.80;7.00;6.80
35654;PMS1003;21773;50.010;19.972;2023-04-28T14:21:05;8.20;8.20;8.00
35654;PMS1003;21773;50.010;19.972;2023-04-28T14:24:09;9.40;8.40;8.00
35654;PMS1003;21773;50.010;19.972;2023-04-28T14:27:12;10.00;9.50;9.00
35654;PMS1003;21773;50.010;19.972;2023-04-28T14:30:16;8.75;8.00;8.00
35654;PMS1003;21773;50.010;19.972;2023-04-28T14:33:22;9.60;9.00;8.00
35654;PMS1003;21773;50.010;19.972;2023-04-28T14:36:25;9.80;9.40;8.00
35654;PMS1003;21773;50.010;19.972;2023-04-28T14:39:28;10.00;9.60;9.00
35654;PMS1003;21773;50.010;19.972;2023-04-28T14:42:32;10.40;10.00;9.00
35654;PMS1003;21773;50.010;19.972;2023-04-28T15:18:51;9.00;9.00;8.00
35654;PMS1003;21773;50.010;19.972;2023-04-28T15:21:54;9.40;8.60;7.60
35654;PMS1003;21773;50.010;19.972;2023-04-28T15:24:59;9.60;9.60;9.00
35654;PMS1003;21773;50.010;19.972;2023-04-28T15:28:02;10.40;10.40;9.80
35654;PMS1003;21773;50.010;19.972;2023-04-28T15:31:07;10.00;10.00;9.00
35654;PMS1003;21773;50.010;19.972;2023-04-28T15:34:12;11.00;11.00;10.00
35654;PMS1003;21773;50.010;19.972;2023-04-28T15:40:48;10.00;9.40;8.80
35654;PMS1003;21773;50.010;19.972;2023-04-28T15:43:51;7.00;6.80;6.00
35654;PMS1003;21773;50.010;19.972;2023-04-28T15:46:56;9.75;9.50;9.00
35654;PMS1003;21773;50.010;19.972;2023-04-28T15:50:01;10.20;10.20;9.80
35654;PMS1003;21773;50.010;19.972;2023-04-28T15:53:04;10.50;10.25;9.25
35654;PMS1003;21773;50.010;19.972;2023-04-28T15:56:08;10.00;9.00;8.00
35654;PMS1003;21773;50.010;19.972;2023-04-28T15:59:12;10.40;10.40;9.40
35654;PMS1003;21773;50.010;19.972;2023-04-28T16:02:19;8.00;7.20;7.00
35654;PMS1003;21773;50.010;19.972;2023-04-28T16:05:25;10.00;8.00;7.80
35654;PMS1003;21773;50.010;19.972;2023-04-28T16:08:29;8.40;8.40;8.40
35654;PMS1003;21773;50.010;19.972;2023-04-28T16:11:32;7.80;7.80;7.20
35654;PMS1003;21773;50.010;19.972;2023-04-28T16:14:35;7.00;7.00;7.00
35654;PMS1003;21773;50.010;19.972;2023-04-28T16:17:39;9.00;9.00;8.40
35654;PMS1003;21773;50.010;19.972;2023-04-28T16:20:46;10.00;9.00;9.00
35654;PMS1003;21773;50.010;19.972;2023-04-28T16:23:50;9.00;8.50;8.00
35654;PMS1003;21773;50.010;19.972;2023-04-28T16:26:54;8.00;8.00;8.00
35654;PMS1003;21773;50.010;19.972;2023-04-28T16:29:57;8.00;8.00;8.00
35654;PMS1003;21773;50.010;19.972;2023-04-28T16:33:00;11.00;10.20;9.20
35654;PMS1003;21773;50.010;19.972;2023-04-28T16:36:05;9.20;8.60;7.80
35654;PMS1003;21773;50.010;19.972;2023-04-28T16:39:09;10.25;10.25;10.00
35654;PMS1003;21773;50.010;19.972;2023-04-28T16:42:12;10.00;9.00;8.00
35654;PMS1003;21773;50.010;19.972;2023-04-28T16:45:16;11.60;11.00;10.60
35654;PMS1003;21773;50.010;19.972;2023-04-28T16:48:19;11.00;10.60;10.00
35654;PMS1003;21773;50.010;19.972;2023-04-28T16:51:25;12.00;12.00;11.00
35654;PMS1003;21773;50.010;19.972;2023-04-28T16:54:29;10.25;10.25;10.00
35654;PMS1003;21773;50.010;19.972;2023-04-28T16:57:33;10.00;10.00;9.00
35654;PMS1003;21773;50.010;19.972;2023-04-28T17:00:37;11.00;11.00;10.00
35654;PMS1003;21773;50.010;19.972;2023-04-28T17:03:41;11.50;11.50;11.00
35654;PMS1003;21773;50.010;19.972;2023-04-28T17:06:46;11.00;10.00;9.25
35654;PMS1003;21773;50.010;19.972;2023-04-28T17:09:49;9.50;9.00;8.50
35654;PMS1003;21773;50.010;19.972;2023-04-28T17:12:53;10.80;10.80;10.00
35654;PMS1003;21773;50.010;19.972;2023-04-28T17:15:57;13.00;12.00;12.00
35654;PMS1003;21773;50.010;19.972;2023-04-28T17:19:01;11.60;11.40;10.40
35654;PMS1003;21773;50.010;19.972;2023-04-28T17:22:07;12.40;11.40;10.40
35654;PMS1003;21773;50.010;19.972;2023-04-28T17:25:11;9.00;9.00;8.75
35654;PMS1003;21773;50.010;19.972;2023-04-28T17:28:15;11.00;11.00;10.00
35654;PMS1003;21773;50.010;19.972;2023-04-28T17:31:18;8.75;8.75;8.25
35654;PMS1003;21773;50.010;19.972;2023-04-28T17:34:22;14.00;13.00;12.40
35654;PMS1003;21773;50.010;19.972;2023-04-28T17:37:27;10.60;10.60;9.60
35654;PMS1003;21773;50.010;19.972;2023-04-28T17:40:31;10.75;10.00;9.75
35654;PMS1003;21773;50.010;19.972;2023-04-28T17:43:35;11.20;11.20;10.80
35654;PMS1003;21773;50.010;19.972;2023-04-28T17:46:39;11.00;9.60;9.00
35654;PMS1003;21773;50.010;19.972;2023-04-28T17:49:43;10.40;9.40;9.00
35654;PMS1003;21773;50.010;19.972;2023-04-28T17:52:48;12.00;11.20;10.20
35654;PMS1003;21773;50.010;19.972;2023-04-28T17:55:51;13.60;13.00;12.00
35654;PMS1003;21773;50.010;19.972;2023-04-28T17:58:54;13.20;13.00;12.00
35654;PMS1003;21773;50.010;19.972;2023-04-28T18:01:58;11.80;10.80;9.80
35654;PMS1003;21773;50.010;19.972;2023-04-28T18:05:01;12.40;12.40;11.00
35654;PMS1003;21773;50.010;19.972;2023-04-28T18:08:06;12.60;12.60;12.00
35654;PMS1003;21773;50.010;19.972;2023-04-28T18:11:10;13.40;13.00;12.40
35654;PMS1003;21773;50.010;19.972;2023-04-28T18:14:13;14.40;13.60;12.40